sensor_id;sensor_type;location;lat;lon;timestamp;pressure;altitude;pressure_sealevel;temperature;humidity
72855;BME280;60991;51.278;22.550;2022-10-15T00:00:09;99230.31;;;12.26;73.47
72855;BME280;60991;51.278;22.550;2022-10-15T00:01:40;99232.47;;;12.24;73.50
72855;BME280;60991;51.278;22.550;2022-10-15T00:03:10;99225.53;;;12.23;73.55
72855;BME280;60991;51.278;22.550;2022-10-15T00:04:40;99222.09;;;12.27;73.50
72855;BME280;60991;51.278;22.550;2022-10-15T00:06:13;99227.16;;;12.29;73.22
72855;BME280;60991;51.278;22.550;2022-10-15T00:07:44;99231.69;;;12.28;73.05
72855;BME280;60991;51.278;22.550;2022-10-15T00:09:14;99225.53;;;12.23;73.39
72855;BME280;60991;51.278;22.550;2022-10-15T00:10:45;99224.25;;;12.30;73.64
72855;BME280;60991;51.278;22.550;2022-10-15T00:12:15;99226.41;;;12.33;73.15
72855;BME280;60991;51.278;22.550;2022-10-15T00:13:45;99226.97;;;12.35;73.35
72855;BME280;60991;51.278;22.550;2022-10-15T00:15:16;99223.47;;;12.30;73.34
72855;BME280;60991;51.278;22.550;2022-10-15T00:16:46;99228.53;;;12.31;73.41
72855;BME280;60991;51.278;22.550;2022-10-15T00:18:16;99226.72;;;12.37;73.15
72855;BME280;60991;51.278;22.550;2022-10-15T00:19:46;99225.91;;;12.36;72.90
72855;BME280;60991;51.278;22.550;2022-10-15T00:21:18;99231.69;;;12.28;73.04
72855;BME280;60991;51.278;22.550;2022-10-15T00:22:49;99231.19;;;12.31;73.41
72855;BME280;60991;51.278;22.550;2022-10-15T00:24:19;99224.31;;;12.35;73.09
72855;BME280;60991;51.278;22.550;2022-10-15T00:25:49;99232.72;;;12.22;73.72
72855;BME280;60991;51.278;22.550;2022-10-15T00:27:20;99220.53;;;12.31;73.49
72855;BME280;60991;51.278;22.550;2022-10-15T00:28:53;99225.06;;;12.31;73.22
72855;BME280;60991;51.278;22.550;2022-10-15T00:30:24;99226.41;;;12.33;73.61
72855;BME280;60991;51.278;22.550;2022-10-15T00:31:54;99220.34;;;12.38;73.08
72855;BME280;60991;51.278;22.550;2022-10-15T00:33:24;99216.53;;;12.29;73.23
72855;BME280;60991;51.278;22.550;2022-10-15T00:34:55;99211.69;;;12.26;73.24
72855;BME280;60991;51.278;22.550;2022-10-15T00:36:30;99211.97;;;12.24;73.48
72855;BME280;60991;51.278;22.550;2022-10-15T00:38:01;99206.38;;;12.26;73.32
72855;BME280;60991;51.278;22.550;2022-10-15T00:39:31;99201.84;;;12.21;74.04
72855;BME280;60991;51.278;22.550;2022-10-15T00:41:03;99200.47;;;12.19;73.78
72855;BME280;60991;51.278;22.550;2022-10-15T00:42:33;99203.19;;;12.24;73.96
72855;BME280;60991;51.278;22.550;2022-10-15T00:45:53;99210.88;;;12.20;74.29
72855;BME280;60991;51.278;22.550;2022-10-15T00:49:20;99209.59;;;12.28;73.46
72855;BME280;60991;51.278;22.550;2022-10-15T00:50:51;99210.91;;;12.25;73.88
72855;BME280;60991;51.278;22.550;2022-10-15T00:52:26;99213.06;;;12.28;73.79
72855;BME280;60991;51.278;22.550;2022-10-15T00:53:59;99212.63;;;12.36;73.17
72855;BME280;60991;51.278;22.550;2022-10-15T00:55:35;99210.16;;;12.30;73.53
72855;BME280;60991;51.278;22.550;2022-10-15T00:57:08;99212.56;;;12.31;73.31
72855;BME280;60991;51.278;22.550;2022-10-15T00:58:39;99206.69;;;12.29;73.73
72855;BME280;60991;51.278;22.550;2022-10-15T01:00:12;99202.66;;;12.27;73.30
72855;BME280;60991;51.278;22.550;2022-10-15T01:01:43;99201.34;;;12.24;73.63
72855;BME280;60991;51.278;22.550;2022-10-15T01:03:13;99196.78;;;12.25;73.46
72855;BME280;60991;51.278;22.550;2022-10-15T01:04:44;99202.09;;;12.25;73.57
72855;BME280;60991;51.278;22.550;2022-10-15T01:06:15;99188.28;;;12.23;73.73
72855;BME280;60991;51.278;22.550;2022-10-15T01:07:45;99192.25;;;12.25;73.90
72855;BME280;60991;51.278;22.550;2022-10-15T01:09:15;99195.72;;;12.26;73.71
72855;BME280;60991;51.278;22.550;2022-10-15T01:10:51;99191.22;;;12.26;73.61
72855;BME280;60991;51.278;22.550;2022-10-15T01:14:50;99195.22;;;12.24;73.66
72855;BME280;60991;51.278;22.550;2022-10-15T01:16:36;99198.66;;;12.24;73.41
72855;BME280;60991;51.278;22.550;2022-10-15T01:18:16;99204.00;;;12.24;73.93
72855;BME280;60991;51.278;22.550;2022-10-15T01:21:45;99198.94;;;12.28;73.82
72855;BME280;60991;51.278;22.550;2022-10-15T01:28:55;99199.41;;;12.20;73.85
72855;BME280;60991;51.278;22.550;2022-10-15T01:30:46;99204.00;;;12.24;73.94
72855;BME280;60991;51.278;22.550;2022-10-15T01:32:37;99202.66;;;12.27;73.55
72855;BME280;60991;51.278;22.550;2022-10-15T01:36:19;99197.34;;;12.27;73.85
72855;BME280;60991;51.278;22.550;2022-10-15T01:39:40;99205.13;;;12.33;73.33
72855;BME280;60991;51.278;22.550;2022-10-15T01:41:31;99197.34;;;12.27;73.58
72855;BME280;60991;51.278;22.550;2022-10-15T01:43:12;99200.78;;;12.22;73.63
72855;BME280;60991;51.278;22.550;2022-10-15T01:44:50;99202.91;;;12.25;73.77
72855;BME280;60991;51.278;22.550;2022-10-15T01:46:36;99204.00;;;12.24;73.41
72855;BME280;60991;51.278;22.550;2022-10-15T01:48:11;99201.03;;;12.21;74.08
72855;BME280;60991;51.278;22.550;2022-10-15T01:49:43;99205.06;;;12.23;74.04
72855;BME280;60991;51.278;22.550;2022-10-15T01:51:16;99200.16;;;12.42;73.07
72855;BME280;60991;51.278;22.550;2022-10-15T01:52:49;99201.41;;;12.34;73.19
72855;BME280;60991;51.278;22.550;2022-10-15T01:54:23;99202.91;;;12.25;73.64
72855;BME280;60991;51.278;22.550;2022-10-15T01:55:57;99208.50;;;12.24;73.75
72855;BME280;60991;51.278;22.550;2022-10-15T01:57:29;99203.44;;;12.22;73.70
72855;BME280;60991;51.278;22.550;2022-10-15T01:59:02;99194.66;;;12.22;74.25
72855;BME280;60991;51.278;22.550;2022-10-15T02:00:33;99197.88;;;12.24;73.58
72855;BME280;60991;51.278;22.550;2022-10-15T02:02:03;99188.81;;;12.25;73.95
72855;BME280;60991;51.278;22.550;2022-10-15T02:03:48;99187.75;;;12.26;73.51
72855;BME280;60991;51.278;22.550;2022-10-15T02:05:22;99193.38;;;12.29;73.54
72855;BME280;60991;51.278;22.550;2022-10-15T02:08:47;99198.16;;;12.27;73.91
72855;BME280;60991;51.278;22.550;2022-10-15T02:10:29;99201.34;;;12.29;73.79
72855;BME280;60991;51.278;22.550;2022-10-15T02:14:08;99200.47;;;12.19;74.05
72855;BME280;60991;51.278;22.550;2022-10-15T02:17:14;99198.06;;;12.17;74.10
72855;BME280;60991;51.278;22.550;2022-10-15T02:21:00;99199.38;;;12.14;74.01
72855;BME280;60991;51.278;22.550;2022-10-15T02:22:40;99189.72;;;12.08;74.12
72855;BME280;60991;51.278;22.550;2022-10-15T02:24:19;99193.25;;;12.14;74.33
72855;BME280;60991;51.278;22.550;2022-10-15T02:25:51;99194.78;;;12.10;75.03
72855;BME280;60991;51.278;22.550;2022-10-15T02:27:23;99193.75;;;12.11;74.58
72855;BME280;60991;51.278;22.550;2022-10-15T02:28:58;99192.94;;;12.10;74.40
72855;BME280;60991;51.278;22.550;2022-10-15T02:30:30;99190.78;;;12.07;74.93
72855;BME280;60991;51.278;22.550;2022-10-15T02:32:01;99187.63;;;12.10;74.78
72855;BME280;60991;51.278;22.550;2022-10-15T02:33:33;99192.44;;;12.13;74.17
72855;BME280;60991;51.278;22.550;2022-10-15T02:35:06;99195.91;;;12.14;74.74
72855;BME280;60991;51.278;22.550;2022-10-15T02:36:41;99191.06;;;12.11;74.76
72855;BME280;60991;51.278;22.550;2022-10-15T02:38:14;99183.09;;;12.11;74.41
72855;BME280;60991;51.278;22.550;2022-10-15T02:39:46;99190.50;;;12.04;75.00
72855;BME280;60991;51.278;22.550;2022-10-15T02:41:17;99183.41;;;12.14;74.60
72855;BME280;60991;51.278;22.550;2022-10-15T02:42:50;99185.19;;;12.09;74.68
72855;BME280;60991;51.278;22.550;2022-10-15T02:44:21;99179.38;;;12.12;74.77
72855;BME280;60991;51.278;22.550;2022-10-15T02:45:51;99179.84;;;12.04;74.59
72855;BME280;60991;51.278;22.550;2022-10-15T02:47:21;99180.34;;;12.01;74.95
72855;BME280;60991;51.278;22.550;2022-10-15T02:48:51;99185.72;;;12.06;74.54
72855;BME280;60991;51.278;22.550;2022-10-15T02:50:21;99185.44;;;12.02;74.91
72855;BME280;60991;51.278;22.550;2022-10-15T02:51:52;99178.81;;;12.05;75.18
72855;BME280;60991;51.278;22.550;2022-10-15T02:53:22;99178.25;;;12.03;74.89
72855;BME280;60991;51.278;22.550;2022-10-15T02:54:52;99176.38;;;12.03;75.09
72855;BME280;60991;51.278;22.550;2022-10-15T02:56:22;99172.44;;;12.06;74.98
72855;BME280;60991;51.278;22.550;2022-10-15T02:57:52;99165.53;;;12.10;75.02
72855;BME280;60991;51.278;22.550;2022-10-15T02:59:23;99169.22;;;12.04;75.34
72855;BME280;60991;51.278;22.550;2022-10-15T03:00:53;99173.75;;;12.08;74.69
72855;BME280;60991;51.278;22.550;2022-10-15T03:02:23;99168.19;;;12.10;75.05
72855;BME280;60991;51.278;22.550;2022-10-15T03:03:54;99168.44;;;12.08;75.25
72855;BME280;60991;51.278;22.550;2022-10-15T03:05:24;99170.91;;;12.15;74.79
72855;BME280;60991;51.278;22.550;2022-10-15T03:06:54;99169.28;;;12.14;74.89
72855;BME280;60991;51.278;22.550;2022-10-15T03:08:24;99175.88;;;12.06;75.26
72855;BME280;60991;51.278;22.550;2022-10-15T03:09:55;99172.94;;;12.03;75.38
72855;BME280;60991;51.278;22.550;2022-10-15T03:11:25;99169.72;;;12.01;74.96
72855;BME280;60991;51.278;22.550;2022-10-15T03:13:01;99169.50;;;12.07;75.16
72855;BME280;60991;51.278;22.550;2022-10-15T03:14:31;99172.75;;;12.14;74.82
72855;BME280;60991;51.278;22.550;2022-10-15T03:16:05;99167.19;;;12.16;74.68
72855;BME280;60991;51.278;22.550;2022-10-15T03:17:36;99165.56;;;12.15;74.71
72855;BME280;60991;51.278;22.550;2022-10-15T03:19:06;99159.94;;;12.11;74.99
72855;BME280;60991;51.278;22.550;2022-10-15T03:20:36;99166.31;;;12.05;75.37
72855;BME280;60991;51.278;22.550;2022-10-15T03:22:06;99166.03;;;12.07;75.35
72855;BME280;60991;51.278;22.550;2022-10-15T03:23:37;99159.69;;;12.13;75.03
72855;BME280;60991;51.278;22.550;2022-10-15T03:25:07;99163.16;;;12.13;74.87
72855;BME280;60991;51.278;22.550;2022-10-15T03:26:37;99158.66;;;12.14;74.62
72855;BME280;60991;51.278;22.550;2022-10-15T03:28:07;99164.28;;;12.18;74.26
72855;BME280;60991;51.278;22.550;2022-10-15T03:29:38;99161.91;;;12.21;74.40
72855;BME280;60991;51.278;22.550;2022-10-15T03:31:08;99162.97;;;12.20;74.46
72855;BME280;60991;51.278;22.550;2022-10-15T03:32:38;99163.00;;;12.25;74.49
72855;BME280;60991;51.278;22.550;2022-10-15T03:34:08;99156.09;;;12.24;74.54
72855;BME280;60991;51.278;22.550;2022-10-15T03:35:39;99163.53;;;12.27;74.47
72855;BME280;60991;51.278;22.550;2022-10-15T03:37:09;99169.72;;;12.33;73.92
72855;BME280;60991;51.278;22.550;2022-10-15T03:38:39;99158.78;;;12.29;73.89
72855;BME280;60991;51.278;22.550;2022-10-15T03:40:10;99168.38;;;12.30;73.65
72855;BME280;60991;51.278;22.550;2022-10-15T03:41:40;99167.06;;;12.33;73.50
72855;BME280;60991;51.278;22.550;2022-10-15T03:43:10;99166.75;;;12.29;73.52
72855;BME280;60991;51.278;22.550;2022-10-15T03:44:40;99170.97;;;12.25;73.68
72855;BME280;60991;51.278;22.550;2022-10-15T03:46:11;99168.84;;;12.22;73.67
72855;BME280;60991;51.278;22.550;2022-10-15T03:47:41;99169.66;;;12.23;73.84
72855;BME280;60991;51.278;22.550;2022-10-15T03:49:11;99172.31;;;12.23;73.75
72855;BME280;60991;51.278;22.550;2022-10-15T03:50:41;99168.25;;;12.15;73.72
72855;BME280;60991;51.278;22.550;2022-10-15T03:52:12;99164.28;;;12.18;73.59
72855;BME280;60991;51.278;22.550;2022-10-15T03:53:42;99165.28;;;12.11;74.18
72855;BME280;60991;51.278;22.550;2022-10-15T03:55:13;99163.91;;;12.09;74.02
72855;BME280;60991;51.278;22.550;2022-10-15T03:56:43;99168.16;;;12.05;74.26
72855;BME280;60991;51.278;22.550;2022-10-15T03:58:13;99171.34;;;12.07;74.36
72855;BME280;60991;51.278;22.550;2022-10-15T03:59:43;99169.78;;;12.11;73.84
72855;BME280;60991;51.278;22.550;2022-10-15T04:01:15;99171.00;;;11.98;74.31
72855;BME280;60991;51.278;22.550;2022-10-15T04:02:46;99162.78;;;12.00;74.44
72855;BME280;60991;51.278;22.550;2022-10-15T04:04:16;99167.50;;;11.93;74.59
72855;BME280;60991;51.278;22.550;2022-10-15T04:05:52;99173.56;;;11.88;74.66
72855;BME280;60991;51.278;22.550;2022-10-15T04:07:23;99167.97;;;11.85;74.72
72855;BME280;60991;51.278;22.550;2022-10-15T04:08:53;99168.53;;;11.92;74.61
72855;BME280;60991;51.278;22.550;2022-10-15T04:10:23;99169.59;;;11.91;74.74
72855;BME280;60991;51.278;22.550;2022-10-15T04:11:53;99167.25;;;11.94;74.61
72855;BME280;60991;51.278;22.550;2022-10-15T04:13:25;99167.00;;;11.96;74.56
72855;BME280;60991;51.278;22.550;2022-10-15T04:14:55;99162.78;;;12.00;73.75
72855;BME280;60991;51.278;22.550;2022-10-15T04:16:25;99166.50;;;11.99;74.39
72855;BME280;60991;51.278;22.550;2022-10-15T04:17:55;99163.09;;;12.03;73.93
72855;BME280;60991;51.278;22.550;2022-10-15T04:19:26;99163.03;;;11.98;74.08
72855;BME280;60991;51.278;22.550;2022-10-15T04:20:59;99153.75;;;12.01;73.72
72855;BME280;60991;51.278;22.550;2022-10-15T04:22:29;99157.16;;;11.96;74.25
72855;BME280;60991;51.278;22.550;2022-10-15T04:24:00;99154.84;;;12.05;73.77
72855;BME280;60991;51.278;22.550;2022-10-15T04:25:30;99159.31;;;11.99;74.00
72855;BME280;60991;51.278;22.550;2022-10-15T04:27:00;99157.97;;;11.97;74.18
72855;BME280;60991;51.278;22.550;2022-10-15T04:28:30;99153.75;;;12.01;74.10
72855;BME280;60991;51.278;22.550;2022-10-15T04:30:01;99161.50;;;12.07;74.18
72855;BME280;60991;51.278;22.550;2022-10-15T04:31:31;99157.53;;;12.05;73.61
72855;BME280;60991;51.278;22.550;2022-10-15T04:33:01;99155.84;;;11.99;73.99
72855;BME280;60991;51.278;22.550;2022-10-15T04:34:31;99157.78;;;12.03;74.09
72855;BME280;60991;51.278;22.550;2022-10-15T04:36:08;99155.66;;;12.05;73.73
72855;BME280;60991;51.278;22.550;2022-10-15T04:37:40;99159.00;;;11.96;74.22
72855;BME280;60991;51.278;22.550;2022-10-15T04:39:11;99163.72;;;11.89;74.34
72855;BME280;60991;51.278;22.550;2022-10-15T04:40:41;99155.81;;;11.94;73.94
72855;BME280;60991;51.278;22.550;2022-10-15T04:42:11;99161.69;;;11.96;73.71
72855;BME280;60991;51.278;22.550;2022-10-15T04:43:41;99163.47;;;11.90;74.46
72855;BME280;60991;51.278;22.550;2022-10-15T04:45:12;99169.41;;;11.97;73.93
72855;BME280;60991;51.278;22.550;2022-10-15T04:46:42;99171.00;;;11.98;73.96
72855;BME280;60991;51.278;22.550;2022-10-15T04:48:12;99156.91;;;11.98;74.00
72855;BME280;60991;51.278;22.550;2022-10-15T04:49:42;99156.91;;;11.98;73.70
72855;BME280;60991;51.278;22.550;2022-10-15T04:51:22;99164.03;;;11.92;74.17
72855;BME280;60991;51.278;22.550;2022-10-15T04:52:53;99159.72;;;11.86;73.87
72855;BME280;60991;51.278;22.550;2022-10-15T04:54:23;99165.31;;;11.90;74.19
72855;BME280;60991;51.278;22.550;2022-10-15T04:55:59;99168.53;;;11.92;73.99
72855;BME280;60991;51.278;22.550;2022-10-15T04:57:30;99170.06;;;11.83;74.00
72855;BME280;60991;51.278;22.550;2022-10-15T04:59:00;99168.00;;;11.90;73.75
72855;BME280;60991;51.278;22.550;2022-10-15T05:00:30;99168.53;;;11.92;73.74
72855;BME280;60991;51.278;22.550;2022-10-15T05:02:01;99168.25;;;11.88;73.78
72855;BME280;60991;51.278;22.550;2022-10-15T05:03:32;99162.16;;;11.93;73.93
72855;BME280;60991;51.278;22.550;2022-10-15T05:05:02;99157.06;;;11.86;73.98
72855;BME280;60991;51.278;22.550;2022-10-15T05:06:33;99160.72;;;11.80;74.29
72855;BME280;60991;51.278;22.550;2022-10-15T05:08:03;99163.28;;;11.75;74.36
72855;BME280;60991;51.278;22.550;2022-10-15T05:09:34;99165.50;;;11.78;74.58
72855;BME280;60991;51.278;22.550;2022-10-15T05:11:06;99166.84;;;11.81;74.35
72855;BME280;60991;51.278;22.550;2022-10-15T05:12:37;99166.84;;;11.81;74.42
72855;BME280;60991;51.278;22.550;2022-10-15T05:14:07;99160.78;;;11.85;73.85
72855;BME280;60991;51.278;22.550;2022-10-15T05:15:37;99164.94;;;11.76;74.20
72855;BME280;60991;51.278;22.550;2022-10-15T05:17:08;99162.59;;;11.79;74.19
72855;BME280;60991;51.278;22.550;2022-10-15T05:18:38;99164.34;;;11.74;74.63
72855;BME280;60991;51.278;22.550;2022-10-15T05:20:09;99165.84;;;11.65;74.95
72855;BME280;60991;51.278;22.550;2022-10-15T05:21:39;99164.50;;;11.62;75.05
72855;BME280;60991;51.278;22.550;2022-10-15T05:23:09;99164.44;;;11.79;74.56
72855;BME280;60991;51.278;22.550;2022-10-15T05:24:40;99161.78;;;11.79;74.42
72855;BME280;60991;51.278;22.550;2022-10-15T05:26:15;99166.44;;;11.72;74.75
72855;BME280;60991;51.278;22.550;2022-10-15T05:27:45;99170.41;;;11.69;74.93
72855;BME280;60991;51.278;22.550;2022-10-15T05:29:16;99157.06;;;11.64;74.85
72855;BME280;60991;51.278;22.550;2022-10-15T05:30:46;99154.44;;;11.69;74.63
72855;BME280;60991;51.278;22.550;2022-10-15T05:32:16;99154.28;;;11.76;74.40
72855;BME280;60991;51.278;22.550;2022-10-15T05:33:48;99162.81;;;11.78;74.58
72855;BME280;60991;51.278;22.550;2022-10-15T05:35:19;99163.13;;;11.82;74.36
72855;BME280;60991;51.278;22.550;2022-10-15T05:36:50;99166.84;;;11.81;74.56
72855;BME280;60991;51.278;22.550;2022-10-15T05:38:20;99159.72;;;11.86;74.08
72855;BME280;60991;51.278;22.550;2022-10-15T05:39:50;99165.84;;;11.87;74.24
72855;BME280;60991;51.278;22.550;2022-10-15T05:41:21;99167.72;;;11.86;74.15
72855;BME280;60991;51.278;22.550;2022-10-15T05:42:52;99165.38;;;11.95;73.94
72855;BME280;60991;51.278;22.550;2022-10-15T05:44:22;99165.94;;;11.97;73.88
72855;BME280;60991;51.278;22.550;2022-10-15T05:45:53;99164.50;;;11.84;74.21
72855;BME280;60991;51.278;22.550;2022-10-15T05:47:24;99166.34;;;11.84;74.02
72855;BME280;60991;51.278;22.550;2022-10-15T05:48:55;99163.38;;;11.80;74.37
72855;BME280;60991;51.278;22.550;2022-10-15T05:50:26;99153.25;;;11.77;74.41
72855;BME280;60991;51.278;22.550;2022-10-15T05:51:56;99155.16;;;11.82;74.12
72855;BME280;60991;51.278;22.550;2022-10-15T05:53:26;99163.69;;;11.84;74.01
72855;BME280;60991;51.278;22.550;2022-10-15T05:54:57;99161.34;;;11.87;74.23
72855;BME280;60991;51.278;22.550;2022-10-15T05:56:27;99155.81;;;11.94;73.83
72855;BME280;60991;51.278;22.550;2022-10-15T05:58:00;99166.69;;;11.92;73.58
72855;BME280;60991;51.278;22.550;2022-10-15T05:59:31;99163.78;;;11.94;73.84
72855;BME280;60991;51.278;22.550;2022-10-15T06:01:04;99167.66;;;11.81;74.40
72855;BME280;60991;51.278;22.550;2022-10-15T06:02:34;99163.13;;;11.82;74.39
72855;BME280;60991;51.278;22.550;2022-10-15T06:04:04;99158.94;;;11.86;74.28
72855;BME280;60991;51.278;22.550;2022-10-15T06:05:34;99163.66;;;12.05;73.24
72855;BME280;60991;51.278;22.550;2022-10-15T06:07:05;99170.22;;;11.98;73.43
72855;BME280;60991;51.278;22.550;2022-10-15T06:08:35;99162.41;;;11.91;73.50
72855;BME280;60991;51.278;22.550;2022-10-15T06:10:05;99165.09;;;11.91;74.18
72855;BME280;60991;51.278;22.550;2022-10-15T06:11:36;99166.91;;;11.86;74.21
72855;BME280;60991;51.278;22.550;2022-10-15T06:13:06;99170.63;;;11.85;74.28
72855;BME280;60991;51.278;22.550;2022-10-15T06:14:36;99165.88;;;11.92;74.20
72855;BME280;60991;51.278;22.550;2022-10-15T06:16:07;99164.84;;;11.93;73.84
72855;BME280;60991;51.278;22.550;2022-10-15T06:17:38;99161.63;;;11.91;74.25
72855;BME280;60991;51.278;22.550;2022-10-15T06:19:08;99168.00;;;11.90;74.47
72855;BME280;60991;51.278;22.550;2022-10-15T06:20:38;99162.47;;;11.96;74.06
72855;BME280;60991;51.278;22.550;2022-10-15T06:22:08;99161.72;;;12.01;74.12
72855;BME280;60991;51.278;22.550;2022-10-15T06:23:39;99159.63;;;12.03;73.96
72855;BME280;60991;51.278;22.550;2022-10-15T06:25:09;99157.78;;;12.03;74.23
72855;BME280;60991;51.278;22.550;2022-10-15T06:26:39;99158.91;;;12.12;74.07
72855;BME280;60991;51.278;22.550;2022-10-15T06:28:09;99162.13;;;12.14;73.49
72855;BME280;60991;51.278;22.550;2022-10-15T06:29:40;99166.88;;;12.12;74.15
72855;BME280;60991;51.278;22.550;2022-10-15T06:31:10;99166.38;;;12.16;73.83
72855;BME280;60991;51.278;22.550;2022-10-15T06:32:46;99176.09;;;12.32;73.34
72855;BME280;60991;51.278;22.550;2022-10-15T06:34:16;99178.13;;;12.20;73.87
72855;BME280;60991;51.278;22.550;2022-10-15T06:35:47;99182.91;;;12.18;73.77
72855;BME280;60991;51.278;22.550;2022-10-15T06:37:17;99173.25;;;12.38;73.37
72855;BME280;60991;51.278;22.550;2022-10-15T06:38:47;99176.69;;;12.39;72.70
72855;BME280;60991;51.278;22.550;2022-10-15T06:40:17;99181.25;;;12.43;73.08
72855;BME280;60991;51.278;22.550;2022-10-15T06:41:48;99182.47;;;12.31;73.31
72855;BME280;60991;51.278;22.550;2022-10-15T06:43:18;99193.50;;;12.44;72.65
72855;BME280;60991;51.278;22.550;2022-10-15T06:44:48;99187.81;;;12.31;73.14
72855;BME280;60991;51.278;22.550;2022-10-15T06:46:18;99188.72;;;12.41;72.77
72855;BME280;60991;51.278;22.550;2022-10-15T06:47:48;99188.97;;;12.40;72.99
72855;BME280;60991;51.278;22.550;2022-10-15T06:49:19;99190.09;;;12.49;72.92
72855;BME280;60991;51.278;22.550;2022-10-15T06:50:49;99185.81;;;12.48;72.92
72855;BME280;60991;51.278;22.550;2022-10-15T06:52:19;99193.28;;;12.51;72.56
72855;BME280;60991;51.278;22.550;2022-10-15T06:53:49;99200.47;;;12.51;72.78
72855;BME280;60991;51.278;22.550;2022-10-15T06:55:20;99198.41;;;12.58;72.77
72855;BME280;60991;51.278;22.550;2022-10-15T06:56:52;99204.56;;;12.63;72.34
72855;BME280;60991;51.278;22.550;2022-10-15T06:58:22;99207.09;;;12.80;71.05
72855;BME280;60991;51.278;22.550;2022-10-15T06:59:54;99204.94;;;12.77;71.64
72855;BME280;60991;51.278;22.550;2022-10-15T07:01:24;99210.28;;;12.82;71.32
72855;BME280;60991;51.278;22.550;2022-10-15T07:02:54;99200.13;;;12.74;71.61
72855;BME280;60991;51.278;22.550;2022-10-15T07:04:24;99206.75;;;12.71;71.81
72855;BME280;60991;51.278;22.550;2022-10-15T07:05:55;99210.03;;;12.83;71.24
72855;BME280;60991;51.278;22.550;2022-10-15T07:07:25;99203.09;;;12.77;71.33
72855;BME280;60991;51.278;22.550;2022-10-15T07:08:55;99216.91;;;12.74;71.69
72855;BME280;60991;51.278;22.550;2022-10-15T07:10:26;99216.28;;;12.62;72.47
72855;BME280;60991;51.278;22.550;2022-10-15T07:11:56;99216.16;;;12.79;71.63
72855;BME280;60991;51.278;22.550;2022-10-15T07:13:28;99216.66;;;12.76;71.92
72855;BME280;60991;51.278;22.550;2022-10-15T07:14:58;99216.50;;;12.93;71.12
72855;BME280;60991;51.278;22.550;2022-10-15T07:16:28;99217.84;;;12.95;71.38
72855;BME280;60991;51.278;22.550;2022-10-15T07:17:58;99201.38;;;12.98;71.40
72855;BME280;60991;51.278;22.550;2022-10-15T07:19:29;99218.69;;;13.01;71.03
72855;BME280;60991;51.278;22.550;2022-10-15T07:20:59;99219.78;;;13.05;71.23
72855;BME280;60991;51.278;22.550;2022-10-15T07:22:29;99211.81;;;13.10;71.13
72855;BME280;60991;51.278;22.550;2022-10-15T07:24:00;99213.75;;;13.20;70.68
72855;BME280;60991;51.278;22.550;2022-10-15T07:25:30;99213.50;;;13.16;71.40
72855;BME280;60991;51.278;22.550;2022-10-15T07:27:01;99206.84;;;13.24;70.46
72855;BME280;60991;51.278;22.550;2022-10-15T07:28:31;99202.63;;;13.28;70.93
72855;BME280;60991;51.278;22.550;2022-10-15T07:30:02;99214.88;;;13.29;70.52
72855;BME280;60991;51.278;22.550;2022-10-15T07:31:33;99215.44;;;13.31;70.94
72855;BME280;60991;51.278;22.550;2022-10-15T07:33:04;99219.25;;;13.55;69.80
72855;BME280;60991;51.278;22.550;2022-10-15T07:34:34;99215.75;;;13.44;70.15
72855;BME280;60991;51.278;22.550;2022-10-15T07:36:07;99205.91;;;13.55;70.05
72855;BME280;60991;51.278;22.550;2022-10-15T07:37:37;99208.31;;;13.57;70.28
72855;BME280;60991;51.278;22.550;2022-10-15T07:39:08;99207.00;;;13.54;70.23
72855;BME280;60991;51.278;22.550;2022-10-15T07:40:38;99211.47;;;13.43;70.50
72855;BME280;60991;51.278;22.550;2022-10-15T07:42:09;99212.84;;;13.51;70.31
72855;BME280;60991;51.278;22.550;2022-10-15T07:43:39;99214.81;;;13.76;69.29
72855;BME280;60991;51.278;22.550;2022-10-15T07:45:10;99203.03;;;13.67;70.00
72855;BME280;60991;51.278;22.550;2022-10-15T07:46:40;99213.16;;;13.65;70.09
72855;BME280;60991;51.278;22.550;2022-10-15T07:48:10;99211.34;;;13.70;69.59
72855;BME280;60991;51.278;22.550;2022-10-15T07:49:40;99206.28;;;13.84;69.04
72855;BME280;60991;51.278;22.550;2022-10-15T07:51:11;99210.84;;;13.94;69.05
72855;BME280;60991;51.278;22.550;2022-10-15T07:52:41;99215.63;;;13.92;69.17
72855;BME280;60991;51.278;22.550;2022-10-15T07:54:11;99212.72;;;13.93;69.16
72855;BME280;60991;51.278;22.550;2022-10-15T07:55:41;99209.03;;;14.04;68.52
72855;BME280;60991;51.278;22.550;2022-10-15T07:57:11;99208.22;;;14.19;67.64
72855;BME280;60991;51.278;22.550;2022-10-15T07:58:42;99221.31;;;14.31;67.37
72855;BME280;60991;51.278;22.550;2022-10-15T08:00:13;99221.59;;;14.24;67.56
72855;BME280;60991;51.278;22.550;2022-10-15T08:01:43;99209.03;;;14.19;67.79
72855;BME280;60991;51.278;22.550;2022-10-15T08:03:13;99215.19;;;14.20;67.90
72855;BME280;60991;51.278;22.550;2022-10-15T08:04:43;99213.59;;;14.24;68.08
72855;BME280;60991;51.278;22.550;2022-10-15T08:06:14;99222.94;;;14.27;67.99
72855;BME280;60991;51.278;22.550;2022-10-15T08:07:44;99223.47;;;14.29;68.11
72855;BME280;60991;51.278;22.550;2022-10-15T08:09:15;99222.19;;;14.46;66.94
72855;BME280;60991;51.278;22.550;2022-10-15T08:10:46;99227.53;;;14.62;66.72
72855;BME280;60991;51.278;22.550;2022-10-15T08:12:16;99227.53;;;14.41;67.80
72855;BME280;60991;51.278;22.550;2022-10-15T08:13:46;99224.56;;;14.53;66.86
72855;BME280;60991;51.278;22.550;2022-10-15T08:15:17;99224.03;;;14.56;67.07
72855;BME280;60991;51.278;22.550;2022-10-15T08:16:47;99229.66;;;14.70;66.50
72855;BME280;60991;51.278;22.550;2022-10-15T08:18:17;99230.19;;;14.72;66.60
72855;BME280;60991;51.278;22.550;2022-10-15T08:19:47;99232.88;;;14.77;66.60
72855;BME280;60991;51.278;22.550;2022-10-15T08:21:18;99223.25;;;14.81;66.63
72855;BME280;60991;51.278;22.550;2022-10-15T08:22:48;99227.22;;;14.94;66.02